createdAt,value
2022-11-18T00:01:49.131Z,4.92
2022-11-18T00:04:18.860Z,5.15
2022-11-18T00:06:48.276Z,4.92
2022-11-18T00:09:17.904Z,5.00
2022-11-18T00:12:05.166Z,5.67
2022-11-18T00:14:34.414Z,4.83
2022-11-18T00:17:05.883Z,5.35
2022-11-18T00:19:37.835Z,5.35
2022-11-18T00:22:08.401Z,5.15
2022-11-18T00:24:37.863Z,4.78
2022-11-18T00:27:07.070Z,5.12
2022-11-18T00:29:36.460Z,5.25
2022-11-18T00:32:06.176Z,5.42
2022-11-18T00:34:35.590Z,5.08
2022-11-18T00:37:04.790Z,5.55
2022-11-18T00:39:34.049Z,5.22
2022-11-18T00:42:21.187Z,5.40
2022-11-18T00:44:50.703Z,5.30
2022-11-18T00:47:19.992Z,5.45
2022-11-18T00:49:49.406Z,5.70
2022-11-18T00:52:18.598Z,5.65
2022-11-18T00:54:47.876Z,5.67
2022-11-18T00:57:17.103Z,5.78
2022-11-18T00:59:46.363Z,5.67
2022-11-18T01:02:15.623Z,5.12
2022-11-18T01:04:44.870Z,6.00
2022-11-18T01:07:14.306Z,5.45
2022-11-18T01:09:43.677Z,5.97
2022-11-18T01:12:31.573Z,5.95
2022-11-18T01:15:01.379Z,5.70
2022-11-18T01:17:34.205Z,5.83
2022-11-18T01:20:03.460Z,5.55
2022-11-18T01:22:32.846Z,6.20
2022-11-18T01:25:02.141Z,5.78
2022-11-18T01:27:31.833Z,6.05
2022-11-18T01:30:01.082Z,6.35
2022-11-18T01:32:30.442Z,6.53
2022-11-18T01:34:59.675Z,6.42
2022-11-18T01:37:29.251Z,5.87
2022-11-18T01:39:58.465Z,6.00
2022-11-18T01:42:27.729Z,6.22
2022-11-18T01:45:18.005Z,5.87
2022-11-18T01:47:50.330Z,5.97
2022-11-18T01:50:21.273Z,5.97
2022-11-18T01:52:52.164Z,5.80
2022-11-18T01:55:27.400Z,6.55
2022-11-18T01:58:00.007Z,6.35
2022-11-18T02:02:58.450Z,5.97
2022-11-18T02:05:27.929Z,6.20
2022-11-18T02:07:57.851Z,5.87
2022-11-18T02:10:27.361Z,5.67
2022-11-18T02:12:57.693Z,6.30
2022-11-18T02:15:39.260Z,6.22
2022-11-18T02:18:11.814Z,6.00
2022-11-18T02:23:34.717Z,6.28
2022-11-18T02:26:16.033Z,6.10
2022-11-18T02:29:19.497Z,6.70
2022-11-18T02:32:10.048Z,6.25
2022-11-18T02:34:41.585Z,6.65
2022-11-18T02:37:22.625Z,6.80
2022-11-18T02:40:01.542Z,6.62
2022-11-18T02:42:32.274Z,6.67
2022-11-18T02:45:04.816Z,6.67
2022-11-18T02:47:36.073Z,6.70
2022-11-18T02:50:08.706Z,7.10
2022-11-18T02:55:09.052Z,7.35
2022-11-18T02:57:39.251Z,6.87
2022-11-18T03:00:09.336Z,6.95
2022-11-18T03:02:44.337Z,6.90
2022-11-18T03:05:31.999Z,6.65
2022-11-18T03:08:04.817Z,7.80
2022-11-18T03:10:37.375Z,7.17
2022-11-18T03:15:42.451Z,7.25
2022-11-18T03:18:20.838Z,6.95
2022-11-18T03:20:56.340Z,6.97
2022-11-18T03:23:43.705Z,7.53
2022-11-18T03:26:19.752Z,6.85
2022-11-18T03:28:54.867Z,7.17
2022-11-18T03:31:37.149Z,7.42
2022-11-18T03:34:12.675Z,7.80
2022-11-18T03:36:51.637Z,7.65
2022-11-18T03:39:19.869Z,7.45
2022-11-18T03:41:52.480Z,6.92
2022-11-18T03:44:27.613Z,7.65
2022-11-18T03:47:09.297Z,7.28
2022-11-18T03:49:46.550Z,7.17
2022-11-18T03:52:21.558Z,7.20
2022-11-18T03:54:53.486Z,7.05
2022-11-18T03:57:28.629Z,6.90
2022-11-18T04:00:06.784Z,7.17
2022-11-18T04:02:36.554Z,6.72
2022-11-18T04:05:07.899Z,6.95
2022-11-18T04:07:52.215Z,7.00
2022-11-18T04:10:27.079Z,7.00
2022-11-18T04:13:06.199Z,6.87
2022-11-18T04:15:35.923Z,7.15
2022-11-18T04:18:05.844Z,6.53
2022-11-18T04:20:35.198Z,7.55
2022-11-18T04:23:05.438Z,7.05
2022-11-18T04:25:35.587Z,6.95
2022-11-18T04:28:05.421Z,6.85
2022-11-18T04:30:35.005Z,6.85
2022-11-18T04:33:05.324Z,6.92
2022-11-18T04:35:34.642Z,6.50
2022-11-18T04:38:05.078Z,6.42
2022-11-18T04:40:34.468Z,6.17
2022-11-18T04:43:03.888Z,6.40
2022-11-18T04:45:33.079Z,6.35
2022-11-18T04:48:03.879Z,6.12
2022-11-18T04:50:33.324Z,6.37
2022-11-18T04:53:02.778Z,6.62
2022-11-18T04:55:32.013Z,6.83
2022-11-18T04:58:01.380Z,6.53
2022-11-18T05:00:30.644Z,6.50
2022-11-18T05:02:59.884Z,6.37
2022-11-18T05:05:29.218Z,6.22
2022-11-18T05:07:58.436Z,6.40
2022-11-18T05:10:27.668Z,6.37
2022-11-18T05:12:56.895Z,6.50
2022-11-18T05:15:26.183Z,6.15
2022-11-18T05:17:55.602Z,6.15
2022-11-18T05:20:25.008Z,6.40
2022-11-18T05:22:54.228Z,6.37
2022-11-18T05:25:23.590Z,6.70
2022-11-18T05:27:53.157Z,6.72
2022-11-18T05:30:22.468Z,6.60
2022-11-18T05:32:51.894Z,6.55
2022-11-18T05:35:21.154Z,6.65
2022-11-18T05:37:50.723Z,6.70
2022-11-18T05:40:19.948Z,6.45
2022-11-18T05:43:07.462Z,7.00
2022-11-18T05:45:36.871Z,6.25
2022-11-18T05:48:06.924Z,6.58
2022-11-18T05:50:38.119Z,6.35
2022-11-18T05:53:07.717Z,6.87
2022-11-18T05:55:40.259Z,6.55
2022-11-18T06:00:38.105Z,6.60
2022-11-18T06:03:10.559Z,6.80
2022-11-18T06:05:39.962Z,7.03
2022-11-18T06:08:10.697Z,7.30
2022-11-18T06:10:40.392Z,6.42
2022-11-18T06:13:12.059Z,6.75
2022-11-18T06:15:43.216Z,7.20
2022-11-18T06:18:15.805Z,6.90
2022-11-18T06:23:14.572Z,7.15
2022-11-18T06:25:43.989Z,7.15
2022-11-18T06:28:15.017Z,6.85
2022-11-18T06:30:44.546Z,7.40
2022-11-18T06:33:14.260Z,7.12
2022-11-18T06:35:44.121Z,6.70
2022-11-18T06:38:13.337Z,7.53
2022-11-18T06:40:44.407Z,7.10
2022-11-18T06:43:32.255Z,7.12
2022-11-18T06:46:21.530Z,7.50
2022-11-18T06:48:51.094Z,7.28
2022-11-18T06:51:20.860Z,6.78
2022-11-18T06:53:50.328Z,7.50
2022-11-18T06:56:21.350Z,7.53
2022-11-18T06:58:56.543Z,8.10
2022-11-18T07:01:28.137Z,7.78
2022-11-18T07:03:59.636Z,8.13
2022-11-18T07:06:31.824Z,7.90
2022-11-18T07:09:02.511Z,7.90
2022-11-18T07:11:31.762Z,7.90
2022-11-18T07:14:01.386Z,8.23
2022-11-18T07:16:30.760Z,8.45
2022-11-18T07:19:00.013Z,8.28
2022-11-18T07:21:30.337Z,8.88
2022-11-18T07:23:59.582Z,8.35
2022-11-18T07:26:28.943Z,8.43
2022-11-18T07:28:58.243Z,9.18
2022-11-18T07:31:27.650Z,9.23
2022-11-18T07:33:57.124Z,9.90
2022-11-18T07:36:35.153Z,9.30
2022-11-18T07:39:01.118Z,9.63
2022-11-18T07:41:31.510Z,9.55
2022-11-18T07:44:03.640Z,9.38
2022-11-18T07:46:35.401Z,9.83
2022-11-18T07:49:07.246Z,8.90
2022-11-18T07:51:39.192Z,9.08
2022-11-18T07:54:10.185Z,9.75
2022-11-18T07:56:39.492Z,9.10
2022-11-18T07:59:09.211Z,9.10
2022-11-18T08:01:38.743Z,9.48
2022-11-18T08:04:10.206Z,8.60
2022-11-18T08:06:40.279Z,8.43
2022-11-18T08:09:10.349Z,8.18
2022-11-18T08:11:41.130Z,8.55
2022-11-18T08:14:10.501Z,8.68
2022-11-18T08:16:39.839Z,8.23
2022-11-18T08:19:09.092Z,8.30
2022-11-18T08:21:38.398Z,7.83
2022-11-18T08:24:09.585Z,7.87
2022-11-18T08:26:39.393Z,8.23
2022-11-18T08:29:08.622Z,8.03
2022-11-18T08:31:38.065Z,7.72
2022-11-18T08:34:08.276Z,7.20
2022-11-18T08:36:38.908Z,6.65
2022-11-18T08:39:11.257Z,6.15
2022-11-18T08:41:42.875Z,6.30
2022-11-18T08:44:14.596Z,6.23
2022-11-18T08:46:47.922Z,6.37
2022-11-18T08:49:17.594Z,5.55
2022-11-18T08:51:47.101Z,5.33
2022-11-18T08:54:16.387Z,5.50
2022-11-18T08:56:45.645Z,5.47
2022-11-18T08:59:15.798Z,5.20
2022-11-18T09:01:45.654Z,4.75
2022-11-18T09:04:14.994Z,5.12
2022-11-18T09:06:44.425Z,4.45
2022-11-18T09:09:13.933Z,4.83
2022-11-18T09:11:43.294Z,4.42
2022-11-18T09:15:11.784Z,4.70
2022-11-18T09:16:44.931Z,4.40
2022-11-18T09:19:45.482Z,4.05
2022-11-18T09:21:46.586Z,4.50
2022-11-18T09:24:16.789Z,4.00
2022-11-18T09:26:46.423Z,4.22
2022-11-18T09:29:15.778Z,4.08
2022-11-18T09:31:45.126Z,3.60
2022-11-18T09:34:14.649Z,4.10
2022-11-18T09:36:44.018Z,3.98
2022-11-18T09:39:13.406Z,4.30
2022-11-18T09:41:47.979Z,4.40
2022-11-18T09:44:38.607Z,4.60
2022-11-18T09:47:36.828Z,4.85
2022-11-18T09:50:48.054Z,4.03
2022-11-18T09:53:23.857Z,5.10
2022-11-18T09:55:53.626Z,4.67
2022-11-18T09:58:31.728Z,5.00
2022-11-18T10:01:01.671Z,5.10
2022-11-18T10:03:32.993Z,5.45
2022-11-18T10:06:11.319Z,5.83
2022-11-18T10:08:49.795Z,5.47
2022-11-18T10:11:21.058Z,5.87
2022-11-18T10:13:53.784Z,6.40
2022-11-18T10:16:57.714Z,6.00
2022-11-18T10:19:38.574Z,5.50
2022-11-18T10:22:31.828Z,5.87
2022-11-18T10:25:01.674Z,5.92
2022-11-18T10:27:41.936Z,5.47
2022-11-18T10:30:14.686Z,5.97
2022-11-18T10:33:01.926Z,5.65
2022-11-18T10:35:39.406Z,5.83
2022-11-18T10:38:17.673Z,5.55
2022-11-18T10:40:55.995Z,5.25
2022-11-18T10:43:46.486Z,4.50
2022-11-18T10:46:30.444Z,4.80
2022-11-18T10:49:15.334Z,4.70
2022-11-18T10:51:50.487Z,4.10
2022-11-18T10:54:24.093Z,4.20
2022-11-18T10:57:05.579Z,4.42
2022-11-18T10:59:47.122Z,3.75
2022-11-18T11:02:36.617Z,3.70
2022-11-18T11:05:23.269Z,4.15
2022-11-18T11:08:35.301Z,4.22
2022-11-18T11:10:38.712Z,4.20
2022-11-18T11:13:14.036Z,4.28
2022-11-18T11:15:45.285Z,4.15
2022-11-18T11:18:36.027Z,4.83
2022-11-18T11:21:07.060Z,4.60
2022-11-18T11:23:36.282Z,4.83
2022-11-18T11:29:30.107Z,5.45
2022-11-18T11:32:31.089Z,5.80
2022-11-18T11:35:15.383Z,6.12
2022-11-18T11:38:01.807Z,6.95
2022-11-18T11:40:46.786Z,7.50
2022-11-18T11:43:24.826Z,7.55
2022-11-18T11:46:22.772Z,7.33
2022-11-18T11:49:13.492Z,7.80
2022-11-18T11:51:51.819Z,8.75
2022-11-18T11:54:27.176Z,10.45
2022-11-18T11:57:25.625Z,10.13
2022-11-18T12:00:02.799Z,10.43
2022-11-18T12:02:39.935Z,10.78
2022-11-18T12:05:35.914Z,11.12
2022-11-18T12:08:13.986Z,11.38
2022-11-18T12:10:55.356Z,12.10
2022-11-18T12:13:44.680Z,11.68
2022-11-18T12:16:41.250Z,12.40
2022-11-18T12:19:16.567Z,13.38
2022-11-18T12:21:49.266Z,12.98
2022-11-18T12:24:39.023Z,12.37
2022-11-18T12:27:14.042Z,12.78
2022-11-18T12:29:55.165Z,12.60
2022-11-18T12:32:45.760Z,12.25
2022-11-18T12:35:18.297Z,12.53
2022-11-18T12:37:56.504Z,12.07
2022-11-18T12:40:43.110Z,12.07
2022-11-18T12:43:45.870Z,11.48
2022-11-18T12:46:41.386Z,12.00
2022-11-18T12:49:27.493Z,11.12
2022-11-18T12:52:01.985Z,10.63
2022-11-18T12:54:36.377Z,10.60
2022-11-18T12:57:29.411Z,10.70
2022-11-18T13:02:31.219Z,10.20
2022-11-18T13:05:11.911Z,10.68
2022-11-18T13:08:02.413Z,10.72
2022-11-18T13:10:34.163Z,10.30
2022-11-18T13:13:04.072Z,11.57
2022-11-18T13:15:51.482Z,10.85
2022-11-18T13:18:22.002Z,10.70
2022-11-18T13:20:59.071Z,11.00
2022-11-18T13:23:49.823Z,10.85
2022-11-18T13:26:30.096Z,11.97
2022-11-18T13:29:31.400Z,11.48
2022-11-18T13:32:04.083Z,11.12
2022-11-18T13:37:02.313Z,11.15
2022-11-18T13:39:33.298Z,11.12
2022-11-18T13:42:23.160Z,11.50
2022-11-18T13:44:58.072Z,11.48
2022-11-18T13:47:54.044Z,11.30
2022-11-18T13:50:34.662Z,11.60
2022-11-18T13:53:22.648Z,11.83
2022-11-18T13:55:55.241Z,12.47
2022-11-18T14:01:24.919Z,11.78
2022-11-18T14:03:56.955Z,12.80
2022-11-18T14:06:40.958Z,13.25
2022-11-18T14:09:30.453Z,12.90
2022-11-18T14:12:13.462Z,13.78
2022-11-18T14:14:44.392Z,14.53
2022-11-18T14:17:19.430Z,13.85
2022-11-18T14:19:51.889Z,13.88
2022-11-18T14:22:24.204Z,15.55
2022-11-18T14:24:59.145Z,15.43
2022-11-18T14:27:39.362Z,14.50
2022-11-18T14:30:34.298Z,14.30
2022-11-18T14:33:24.116Z,14.40
2022-11-18T14:36:02.232Z,14.58
2022-11-18T14:39:25.384Z,14.80
2022-11-18T14:41:23.476Z,15.23
2022-11-18T14:43:52.782Z,15.15
2022-11-18T14:46:22.241Z,15.50
2022-11-18T14:48:51.527Z,16.35
2022-11-18T14:51:21.668Z,16.45
2022-11-18T14:53:50.876Z,15.93
2022-11-18T14:56:32.843Z,16.27
2022-11-18T14:59:02.347Z,17.17
2022-11-18T15:01:31.813Z,17.10
2022-11-18T15:04:01.040Z,18.40
2022-11-18T15:06:30.295Z,18.92
2022-11-18T15:09:00.246Z,19.90
2022-11-18T15:11:29.583Z,19.87
2022-11-18T15:13:58.931Z,21.25
2022-11-18T15:16:31.026Z,21.73
2022-11-18T15:19:02.606Z,21.35
2022-11-18T15:21:32.389Z,21.57
2022-11-18T15:24:01.782Z,22.20
2022-11-18T15:26:37.220Z,22.87
2022-11-18T15:29:06.654Z,23.57
2022-11-18T15:31:35.875Z,23.22
2022-11-18T15:34:18.386Z,23.52
2022-11-18T15:36:36.429Z,25.40
2022-11-18T15:39:05.791Z,23.42
2022-11-18T15:41:35.214Z,24.50
2022-11-18T15:44:04.614Z,24.57
2022-11-18T15:46:34.294Z,24.40
2022-11-18T15:49:04.462Z,24.92
2022-11-18T15:51:34.154Z,25.23
2022-11-18T15:54:03.516Z,24.67
2022-11-18T15:56:33.868Z,25.82
2022-11-18T15:59:05.375Z,25.88
2022-11-18T16:01:37.881Z,25.48
2022-11-18T16:04:08.683Z,26.48
2022-11-18T16:06:38.537Z,26.97
2022-11-18T16:09:08.278Z,27.35
2022-11-18T16:11:55.490Z,28.38
2022-11-18T16:14:25.466Z,27.60
2022-11-18T16:16:56.611Z,28.12
2022-11-18T16:19:28.743Z,30.40
2022-11-18T16:21:58.396Z,29.20
2022-11-18T16:24:29.396Z,29.23
2022-11-18T16:26:59.039Z,29.75
2022-11-18T16:29:28.325Z,30.77
2022-11-18T16:31:57.656Z,31.30
2022-11-18T16:34:29.834Z,32.83
2022-11-18T16:37:02.702Z,34.23
2022-11-18T16:39:32.081Z,34.03
2022-11-18T16:42:08.495Z,32.78
2022-11-18T16:44:34.159Z,36.45
2022-11-18T16:47:06.499Z,34.73
2022-11-18T16:49:34.381Z,32.73
2022-11-18T16:52:03.715Z,32.20
2022-11-18T16:54:33.321Z,31.50
2022-11-18T16:57:02.736Z,32.35
2022-11-18T16:59:32.965Z,31.40
2022-11-18T17:02:03.051Z,32.50
2022-11-18T17:04:34.689Z,36.77
2022-11-18T17:07:04.095Z,37.53
2022-11-18T17:09:33.871Z,35.65
2022-11-18T17:12:03.661Z,37.00
2022-11-18T17:14:32.919Z,36.63
2022-11-18T17:17:02.113Z,35.08
2022-11-18T17:19:31.466Z,35.83
2022-11-18T17:22:00.836Z,36.33
2022-11-18T17:24:30.198Z,35.48
2022-11-18T17:26:59.577Z,33.45
2022-11-18T17:29:29.083Z,32.75
2022-11-18T17:31:58.354Z,35.63
2022-11-18T17:34:27.595Z,38.00
2022-11-18T17:37:00.196Z,36.60
2022-11-18T17:39:27.826Z,36.10
2022-11-18T17:42:15.534Z,35.35
2022-11-18T17:44:45.409Z,33.78
2022-11-18T17:47:14.612Z,35.40
2022-11-18T17:49:44.091Z,36.42
2022-11-18T17:52:13.362Z,35.28
2022-11-18T17:54:42.689Z,36.65
2022-11-18T17:57:12.000Z,38.50
2022-11-18T17:59:41.295Z,36.90
2022-11-18T18:02:12.613Z,41.92
2022-11-18T18:04:41.997Z,43.87
2022-11-18T18:07:11.406Z,38.00
2022-11-18T18:09:40.641Z,34.38
2022-11-18T18:12:27.829Z,31.05
2022-11-18T18:14:57.201Z,32.65
2022-11-18T18:17:26.537Z,33.38
2022-11-18T18:19:55.798Z,35.85
2022-11-18T18:22:25.067Z,39.58
2022-11-18T18:24:57.385Z,40.30
2022-11-18T18:27:26.631Z,39.42
2022-11-18T18:29:55.999Z,36.70
2022-11-18T18:32:25.289Z,35.33
2022-11-18T18:34:54.644Z,34.67
2022-11-18T18:37:23.865Z,38.20
2022-11-18T18:39:53.573Z,37.50
2022-11-18T18:42:22.807Z,37.55
2022-11-18T18:45:09.825Z,39.67
2022-11-18T18:47:39.152Z,38.17
2022-11-18T18:50:08.693Z,40.48
2022-11-18T18:52:37.926Z,40.43
2022-11-18T18:55:07.839Z,42.55
2022-11-18T18:57:37.433Z,40.60
2022-11-18T19:00:08.286Z,42.08
2022-11-18T19:02:37.531Z,40.33
2022-11-18T19:05:08.079Z,41.42
2022-11-18T19:07:37.405Z,42.73
2022-11-18T19:10:07.521Z,44.95
2022-11-18T19:12:47.235Z,52.50
2022-11-18T19:15:16.919Z,54.80
2022-11-18T19:17:47.272Z,51.68
2022-11-18T19:20:36.828Z,45.40
2022-11-18T19:23:10.356Z,44.80
2022-11-18T19:25:39.430Z,45.05
2022-11-18T19:28:09.498Z,42.75
2022-11-18T19:30:39.187Z,42.43
2022-11-18T19:33:08.569Z,43.48
2022-11-18T19:35:38.257Z,44.65
2022-11-18T19:38:07.758Z,45.00
2022-11-18T19:40:37.019Z,50.23
2022-11-18T19:43:06.628Z,54.73
2022-11-18T19:45:35.993Z,59.03
2022-11-18T19:48:06.280Z,56.45
2022-11-18T19:50:35.819Z,56.08
2022-11-18T19:53:06.850Z,49.98
2022-11-18T19:55:36.249Z,49.33
2022-11-18T19:58:05.475Z,51.30
2022-11-18T20:00:34.846Z,53.33
2022-11-18T20:03:06.069Z,55.98
2022-11-18T20:05:54.903Z,51.42
2022-11-18T20:08:25.624Z,47.95
2022-11-18T20:10:55.111Z,46.90
2022-11-18T20:13:24.361Z,48.00
2022-11-18T20:15:54.006Z,50.73
2022-11-18T20:18:24.937Z,49.23
2022-11-18T20:20:54.505Z,50.70
2022-11-18T20:23:24.399Z,50.88
2022-11-18T20:25:53.905Z,53.90
2022-11-18T20:28:23.129Z,52.35
2022-11-18T20:30:55.654Z,44.75
2022-11-18T20:33:25.059Z,46.35
2022-11-18T20:35:54.480Z,46.37
2022-11-18T20:38:25.110Z,44.03
2022-11-18T20:40:54.397Z,49.45
2022-11-18T20:43:23.836Z,59.38
2022-11-18T20:45:55.672Z,54.42
2022-11-18T20:48:25.066Z,48.65
2022-11-18T20:50:54.708Z,50.20
2022-11-18T20:53:25.911Z,52.43
2022-11-18T20:55:55.570Z,55.23
2022-11-18T20:58:25.032Z,57.53
2022-11-18T21:00:58.049Z,60.20
2022-11-18T21:03:25.576Z,57.00
2022-11-18T21:05:54.827Z,55.35
2022-11-18T21:08:24.192Z,57.08
2022-11-18T21:10:53.416Z,54.65
2022-11-18T21:13:41.119Z,54.63
2022-11-18T21:16:10.353Z,55.75
2022-11-18T21:18:39.814Z,54.25
2022-11-18T21:21:27.118Z,54.90
2022-11-18T21:23:58.190Z,56.45
2022-11-18T21:26:29.759Z,57.43
2022-11-18T21:29:00.615Z,57.50
2022-11-18T21:31:30.390Z,58.15
2022-11-18T21:33:59.941Z,56.83
2022-11-18T21:36:29.854Z,59.83
2022-11-18T21:38:59.628Z,56.30
2022-11-18T21:41:30.286Z,54.58
2022-11-18T21:44:06.908Z,54.20
2022-11-18T21:46:32.275Z,56.70
2022-11-18T21:49:01.930Z,57.80
2022-11-18T21:51:35.054Z,57.78
2022-11-18T21:54:04.748Z,55.92
2022-11-18T21:56:34.652Z,59.67
2022-11-18T21:59:04.095Z,57.38
2022-11-18T22:01:34.437Z,40.58
2022-11-18T22:04:05.602Z,24.50
2022-11-18T22:06:35.629Z,20.32
2022-11-18T22:09:06.180Z,21.90
2022-11-18T22:11:35.593Z,22.20
2022-11-18T22:14:06.271Z,22.00
2022-11-18T22:16:35.766Z,20.20
2022-11-18T22:19:08.174Z,19.98
2022-11-18T22:21:36.292Z,19.77
2022-11-18T22:24:06.092Z,20.02
2022-11-18T22:26:36.009Z,22.42
2022-11-18T22:29:05.628Z,22.15
2022-11-18T22:31:35.208Z,23.60
2022-11-18T22:34:04.526Z,24.80
2022-11-18T22:36:34.490Z,23.20
2022-11-18T22:39:04.028Z,24.55
2022-11-18T22:41:51.435Z,24.98
2022-11-18T22:44:20.678Z,26.23
2022-11-18T22:46:50.045Z,27.13
2022-11-18T22:49:19.568Z,27.55
2022-11-18T22:51:48.967Z,27.50
2022-11-18T22:56:49.295Z,28.30
2022-11-18T22:59:19.118Z,30.43
2022-11-18T23:01:48.641Z,29.98
2022-11-18T23:04:17.939Z,29.80
2022-11-18T23:06:47.342Z,29.00
2022-11-18T23:09:17.264Z,28.52
2022-11-18T23:12:04.788Z,28.75
2022-11-18T23:14:34.170Z,29.48
2022-11-18T23:17:04.772Z,28.90
2022-11-18T23:19:34.071Z,29.82
2022-11-18T23:22:03.259Z,29.27
2022-11-18T23:24:32.598Z,30.77
2022-11-18T23:27:01.823Z,32.50
2022-11-18T23:29:31.215Z,31.07
2022-11-18T23:32:00.451Z,31.60
2022-11-18T23:34:29.762Z,30.57
2022-11-18T23:36:58.976Z,30.70
2022-11-18T23:39:28.330Z,29.72
2022-11-18T23:41:57.527Z,31.37
2022-11-18T23:44:28.531Z,29.63
2022-11-18T23:46:57.745Z,29.48
2022-11-18T23:49:27.049Z,30.97
2022-11-18T23:51:56.462Z,31.52
2022-11-18T23:54:25.870Z,29.37
2022-11-18T23:56:55.138Z,32.08
2022-11-18T23:59:24.380Z,30.08
